sensor_id;sensor_type;location;lat;lon;timestamp;pressure;altitude;pressure_sealevel;temperature;humidity
40650;BME280;26342;42.826;23.992;2023-07-02T00:00:32;94648.16;;;17.88;100.00
40650;BME280;26342;42.826;23.992;2023-07-02T00:03:00;94644.53;;;17.75;100.00
40650;BME280;26342;42.826;23.992;2023-07-02T00:05:25;94633.72;;;17.58;100.00
40650;BME280;26342;42.826;23.992;2023-07-02T00:07:51;94634.97;;;17.61;100.00
40650;BME280;26342;42.826;23.992;2023-07-02T00:10:16;94623.59;;;17.55;100.00
40650;BME280;26342;42.826;23.992;2023-07-02T00:12:42;94631.50;;;17.60;100.00
40650;BME280;26342;42.826;23.992;2023-07-02T00:15:09;94622.16;;;17.57;100.00
40650;BME280;26342;42.826;23.992;2023-07-02T00:17:35;94626.28;;;17.55;100.00
40650;BME280;26342;42.826;23.992;2023-07-02T00:20:07;94615.63;;;17.50;100.00
40650;BME280;26342;42.826;23.992;2023-07-02T00:22:40;94613.75;;;17.42;100.00
40650;BME280;26342;42.826;23.992;2023-07-02T00:25:07;94607.56;;;17.33;100.00
40650;BME280;26342;42.826;23.992;2023-07-02T00:27:33;94620.88;;;17.29;100.00
40650;BME280;26342;42.826;23.992;2023-07-02T00:29:58;94619.28;;;17.28;100.00
40650;BME280;26342;42.826;23.992;2023-07-02T00:32:24;94619.59;;;17.26;100.00
40650;BME280;26342;42.826;23.992;2023-07-02T00:34:49;94611.53;;;17.26;100.00
40650;BME280;26342;42.826;23.992;2023-07-02T00:37:24;94605.66;;;17.24;100.00
40650;BME280;26342;42.826;23.992;2023-07-02T00:39:50;94617.09;;;17.30;100.00
40650;BME280;26342;42.826;23.992;2023-07-02T00:42:17;94610.25;;;17.33;100.00
40650;BME280;26342;42.826;23.992;2023-07-02T00:44:43;94605.00;;;17.36;100.00
40650;BME280;26342;42.826;23.992;2023-07-02T00:47:09;94607.88;;;17.31;100.00
40650;BME280;26342;42.826;23.992;2023-07-02T00:49:35;94597.41;;;17.29;100.00
40650;BME280;26342;42.826;23.992;2023-07-02T00:52:00;94599.94;;;17.35;100.00
40650;BME280;26342;42.826;23.992;2023-07-02T00:54:30;94603.28;;;17.32;100.00
40650;BME280;26342;42.826;23.992;2023-07-02T00:56:55;94597.56;;;17.24;100.00
40650;BME280;26342;42.826;23.992;2023-07-02T00:59:21;94604.88;;;17.15;100.00
40650;BME280;26342;42.826;23.992;2023-07-02T01:01:47;94606.13;;;17.09;100.00
40650;BME280;26342;42.826;23.992;2023-07-02T01:04:18;94605.97;;;17.14;100.00
40650;BME280;26342;42.826;23.992;2023-07-02T01:06:44;94608.34;;;17.16;100.00
40650;BME280;26342;42.826;23.992;2023-07-02T01:09:10;94612.16;;;17.15;100.00
40650;BME280;26342;42.826;23.992;2023-07-02T01:11:42;94603.56;;;17.13;100.00
40650;BME280;26342;42.826;23.992;2023-07-02T01:14:12;94599.63;;;17.10;100.00
40650;BME280;26342;42.826;23.992;2023-07-02T01:16:41;94589.78;;;17.06;100.00
40650;BME280;26342;42.826;23.992;2023-07-02T01:19:13;94593.25;;;17.06;100.00
40650;BME280;26342;42.826;23.992;2023-07-02T01:21:44;94596.28;;;17.13;100.00
40650;BME280;26342;42.826;23.992;2023-07-02T01:24:10;94594.56;;;17.09;100.00
40650;BME280;26342;42.826;23.992;2023-07-02T01:26:36;94599.16;;;17.08;100.00
40650;BME280;26342;42.826;23.992;2023-07-02T01:29:18;94604.88;;;17.07;100.00
40650;BME280;26342;42.826;23.992;2023-07-02T01:31:44;94582.00;;;16.95;100.00
40650;BME280;26342;42.826;23.992;2023-07-02T01:34:10;94594.84;;;16.90;100.00
40650;BME280;26342;42.826;23.992;2023-07-02T01:36:36;94602.75;;;16.86;100.00
40650;BME280;26342;42.826;23.992;2023-07-02T01:39:02;94614.81;;;16.89;100.00
40650;BME280;26342;42.826;23.992;2023-07-02T01:41:27;94607.03;;;16.87;100.00
40650;BME280;26342;42.826;23.992;2023-07-02T01:43:53;94612.44;;;16.87;100.00
40650;BME280;26342;42.826;23.992;2023-07-02T01:46:18;94619.25;;;16.85;100.00
40650;BME280;26342;42.826;23.992;2023-07-02T01:48:44;94615.75;;;16.84;100.00
40650;BME280;26342;42.826;23.992;2023-07-02T01:51:09;94604.78;;;16.72;100.00
40650;BME280;26342;42.826;23.992;2023-07-02T01:53:34;94611.09;;;16.67;100.00
40650;BME280;26342;42.826;23.992;2023-07-02T01:56:00;94606.81;;;16.66;100.00
40650;BME280;26342;42.826;23.992;2023-07-02T01:58:25;94613.97;;;16.71;100.00
40650;BME280;26342;42.826;23.992;2023-07-02T02:00:51;94603.69;;;16.73;100.00
40650;BME280;26342;42.826;23.992;2023-07-02T02:03:17;94611.63;;;16.78;100.00
40650;BME280;26342;42.826;23.992;2023-07-02T02:05:42;94605.25;;;16.74;100.00
40650;BME280;26342;42.826;23.992;2023-07-02T02:08:07;94611.50;;;16.83;100.00
40650;BME280;26342;42.826;23.992;2023-07-02T02:10:33;94613.84;;;16.76;100.00
40650;BME280;26342;42.826;23.992;2023-07-02T02:12:58;94616.22;;;16.78;100.00
40650;BME280;26342;42.826;23.992;2023-07-02T02:15:24;94602.56;;;16.74;100.00
40650;BME280;26342;42.826;23.992;2023-07-02T02:17:49;94604.19;;;16.75;100.00
40650;BME280;26342;42.826;23.992;2023-07-02T02:20:15;94603.69;;;16.73;100.00
40650;BME280;26342;42.826;23.992;2023-07-02T02:22:40;94609.72;;;16.70;100.00
40650;BME280;26342;42.826;23.992;2023-07-02T02:25:06;94611.72;;;16.64;100.00
40650;BME280;26342;42.826;23.992;2023-07-02T02:27:31;94620.59;;;16.65;100.00
40650;BME280;26342;42.826;23.992;2023-07-02T02:29:57;94620.75;;;16.60;100.00
40650;BME280;26342;42.826;23.992;2023-07-02T02:32:22;94609.31;;;16.54;100.00
40650;BME280;26342;42.826;23.992;2023-07-02T02:34:49;94625.34;;;16.59;100.00
40650;BME280;26342;42.826;23.992;2023-07-02T02:37:14;94621.22;;;16.62;100.00
40650;BME280;26342;42.826;23.992;2023-07-02T02:39:40;94619.44;;;16.57;100.00
40650;BME280;26342;42.826;23.992;2023-07-02T02:42:05;94629.44;;;16.57;100.00
40650;BME280;26342;42.826;23.992;2023-07-02T02:44:31;94628.50;;;16.61;100.00
40650;BME280;26342;42.826;23.992;2023-07-02T02:46:57;94638.00;;;16.59;100.00
40650;BME280;26342;42.826;23.992;2023-07-02T02:49:23;94633.09;;;16.61;100.00
40650;BME280;26342;42.826;23.992;2023-07-02T02:51:48;94619.97;;;16.68;100.00
40650;BME280;26342;42.826;23.992;2023-07-02T02:54:14;94620.47;;;16.70;100.00
40650;BME280;26342;42.826;23.992;2023-07-02T02:56:39;94616.31;;;16.64;100.00
40650;BME280;26342;42.826;23.992;2023-07-02T02:59:04;94612.34;;;16.61;100.00
40650;BME280;26342;42.826;23.992;2023-07-02T03:01:30;94604.41;;;16.56;100.00
40650;BME280;26342;42.826;23.992;2023-07-02T03:03:57;94614.72;;;16.54;100.00
40650;BME280;26342;42.826;23.992;2023-07-02T03:06:23;94620.53;;;16.47;100.00
40650;BME280;26342;42.826;23.992;2023-07-02T03:08:48;94619.63;;;16.52;100.00
40650;BME280;26342;42.826;23.992;2023-07-02T03:11:14;94610.78;;;16.60;100.00
40650;BME280;26342;42.826;23.992;2023-07-02T03:13:39;94607.13;;;16.65;100.00
40650;BME280;26342;42.826;23.992;2023-07-02T03:16:05;94623.47;;;16.68;100.00
40650;BME280;26342;42.826;23.992;2023-07-02T03:18:30;94611.91;;;16.68;100.00
40650;BME280;26342;42.826;23.992;2023-07-02T03:20:56;94617.66;;;16.75;100.00
40650;BME280;26342;42.826;23.992;2023-07-02T03:23:21;94618.91;;;16.78;100.00
40650;BME280;26342;42.826;23.992;2023-07-02T03:25:47;94622.72;;;16.77;100.00
40650;BME280;26342;42.826;23.992;2023-07-02T03:28:12;94623.50;;;16.77;100.00
40650;BME280;26342;42.826;23.992;2023-07-02T03:30:38;94613.66;;;16.72;100.00
40650;BME280;26342;42.826;23.992;2023-07-02T03:33:03;94611.28;;;16.71;100.00
40650;BME280;26342;42.826;23.992;2023-07-02T03:35:29;94606.72;;;16.80;100.00
40650;BME280;26342;42.826;23.992;2023-07-02T03:37:54;94596.19;;;16.61;100.00
40650;BME280;26342;42.826;23.992;2023-07-02T03:40:20;94600.28;;;16.59;100.00
40650;BME280;26342;42.826;23.992;2023-07-02T03:42:45;94603.47;;;16.61;100.00
40650;BME280;26342;42.826;23.992;2023-07-02T03:45:11;94594.75;;;16.55;100.00
40650;BME280;26342;42.826;23.992;2023-07-02T03:47:36;94592.53;;;16.57;100.00
40650;BME280;26342;42.826;23.992;2023-07-02T03:50:02;94585.22;;;16.58;100.00
40650;BME280;26342;42.826;23.992;2023-07-02T03:52:27;94599.41;;;16.72;100.00
40650;BME280;26342;42.826;23.992;2023-07-02T03:54:52;94615.25;;;16.82;100.00
40650;BME280;26342;42.826;23.992;2023-07-02T03:57:18;94608.78;;;16.83;100.00
40650;BME280;26342;42.826;23.992;2023-07-02T03:59:43;94619.88;;;16.82;100.00
40650;BME280;26342;42.826;23.992;2023-07-02T04:02:09;94618.72;;;16.74;100.00
40650;BME280;26342;42.826;23.992;2023-07-02T04:04:34;94602.75;;;16.69;100.00
40650;BME280;26342;42.826;23.992;2023-07-02T04:06:59;94601.00;;;16.73;100.00
40650;BME280;26342;42.826;23.992;2023-07-02T04:09:25;94608.78;;;16.83;100.00
40650;BME280;26342;42.826;23.992;2023-07-02T04:11:50;94609.09;;;16.82;100.00
40650;BME280;26342;42.826;23.992;2023-07-02T04:14:16;94623.53;;;16.86;100.00
40650;BME280;26342;42.826;23.992;2023-07-02T04:16:43;94617.38;;;16.94;100.00
40650;BME280;26342;42.826;23.992;2023-07-02T04:19:09;94612.44;;;16.96;100.00
40650;BME280;26342;42.826;23.992;2023-07-02T04:21:35;94620.53;;;17.05;100.00
40650;BME280;26342;42.826;23.992;2023-07-02T04:24:01;94608.97;;;17.13;100.00
40650;BME280;26342;42.826;23.992;2023-07-02T04:26:26;94612.97;;;17.24;100.00
40650;BME280;26342;42.826;23.992;2023-07-02T04:28:53;94622.63;;;17.34;100.00
40650;BME280;26342;42.826;23.992;2023-07-02T04:31:19;94610.41;;;17.27;100.00
40650;BME280;26342;42.826;23.992;2023-07-02T04:33:44;94612.47;;;17.39;100.00
40650;BME280;26342;42.826;23.992;2023-07-02T04:36:10;94613.59;;;17.47;100.00
40650;BME280;26342;42.826;23.992;2023-07-02T04:38:35;94621.38;;;17.48;100.00
40650;BME280;26342;42.826;23.992;2023-07-02T04:41:00;94627.22;;;17.50;100.00
40650;BME280;26342;42.826;23.992;2023-07-02T04:43:31;94631.66;;;17.64;100.00
40650;BME280;26342;42.826;23.992;2023-07-02T04:45:57;94636.09;;;17.68;100.00
40650;BME280;26342;42.826;23.992;2023-07-02T04:48:22;94645.16;;;17.64;100.00
40650;BME280;26342;42.826;23.992;2023-07-02T04:50:47;94649.91;;;17.67;100.00
40650;BME280;26342;42.826;23.992;2023-07-02T04:53:13;94655.31;;;17.75;100.00
40650;BME280;26342;42.826;23.992;2023-07-02T04:55:38;94661.03;;;17.74;100.00
40650;BME280;26342;42.826;23.992;2023-07-02T04:58:03;94660.56;;;17.72;100.00
40650;BME280;26342;42.826;23.992;2023-07-02T05:00:29;94661.38;;;17.72;100.00
40650;BME280;26342;42.826;23.992;2023-07-02T05:02:54;94643.56;;;17.63;100.00
40650;BME280;26342;42.826;23.992;2023-07-02T05:05:20;94654.38;;;17.71;100.00
40650;BME280;26342;42.826;23.992;2023-07-02T05:07:45;94648.50;;;17.78;100.00
40650;BME280;26342;42.826;23.992;2023-07-02T05:10:11;94652.31;;;17.85;100.00
40650;BME280;26342;42.826;23.992;2023-07-02T05:12:36;94655.78;;;17.95;100.00
40650;BME280;26342;42.826;23.992;2023-07-02T05:15:02;94668.44;;;18.11;100.00
40650;BME280;26342;42.826;23.992;2023-07-02T05:17:27;94660.34;;;18.11;100.00
40650;BME280;26342;42.826;23.992;2023-07-02T05:19:53;94655.13;;;18.06;100.00
40650;BME280;26342;42.826;23.992;2023-07-02T05:22:19;94679.06;;;18.17;100.00
40650;BME280;26342;42.826;23.992;2023-07-02T05:24:44;94666.53;;;18.21;100.00
40650;BME280;26342;42.826;23.992;2023-07-02T05:27:11;94678.56;;;18.23;100.00
40650;BME280;26342;42.826;23.992;2023-07-02T05:29:36;94687.63;;;18.27;100.00
40650;BME280;26342;42.826;23.992;2023-07-02T05:32:02;94689.06;;;18.33;100.00
40650;BME280;26342;42.826;23.992;2023-07-02T05:34:27;94674.28;;;18.31;100.00
40650;BME280;26342;42.826;23.992;2023-07-02T05:36:53;94679.19;;;18.37;100.00
40650;BME280;26342;42.826;23.992;2023-07-02T05:39:18;94693.78;;;18.45;100.00
40650;BME280;26342;42.826;23.992;2023-07-02T05:41:43;94694.72;;;18.49;100.00
40650;BME280;26342;42.826;23.992;2023-07-02T05:44:09;94694.88;;;18.53;100.00
40650;BME280;26342;42.826;23.992;2023-07-02T05:46:34;94695.31;;;18.55;100.00
40650;BME280;26342;42.826;23.992;2023-07-02T05:48:59;94690.56;;;18.60;100.00
40650;BME280;26342;42.826;23.992;2023-07-02T05:51:25;94694.50;;;18.63;100.00
40650;BME280;26342;42.826;23.992;2023-07-02T05:53:51;94690.53;;;18.69;100.00
40650;BME280;26342;42.826;23.992;2023-07-02T05:56:17;94688.16;;;18.67;100.00
40650;BME280;26342;42.826;23.992;2023-07-02T05:58:44;94680.06;;;18.59;100.00
40650;BME280;26342;42.826;23.992;2023-07-02T06:01:10;94694.81;;;18.70;100.00
40650;BME280;26342;42.826;23.992;2023-07-02T06:03:36;94692.47;;;18.68;100.00
40650;BME280;26342;42.826;23.992;2023-07-02T06:06:03;94690.22;;;18.62;100.00
40650;BME280;26342;42.826;23.992;2023-07-02T06:08:28;94692.00;;;18.66;100.00
40650;BME280;26342;42.826;23.992;2023-07-02T06:10:53;94691.50;;;18.73;100.00
40650;BME280;26342;42.826;23.992;2023-07-02T06:13:19;94686.88;;;18.74;100.00
40650;BME280;26342;42.826;23.992;2023-07-02T06:15:45;94687.47;;;18.79;100.00
40650;BME280;26342;42.826;23.992;2023-07-02T06:18:12;94678.28;;;18.80;100.00
40650;BME280;26342;42.826;23.992;2023-07-02T06:20:39;94677.28;;;18.85;100.00
40650;BME280;26342;42.826;23.992;2023-07-02T06:23:05;94681.38;;;18.91;100.00
40650;BME280;26342;42.826;23.992;2023-07-02T06:25:30;94686.28;;;18.98;100.00
40650;BME280;26342;42.826;23.992;2023-07-02T06:27:56;94686.09;;;19.03;100.00
40650;BME280;26342;42.826;23.992;2023-07-02T06:30:24;94683.88;;;19.05;100.00
40650;BME280;26342;42.826;23.992;2023-07-02T06:32:49;94682.47;;;18.99;100.00
40650;BME280;26342;42.826;23.992;2023-07-02T06:35:14;94678.25;;;19.10;100.00
40650;BME280;26342;42.826;23.992;2023-07-02T06:37:40;94669.69;;;19.08;100.00
40650;BME280;26342;42.826;23.992;2023-07-02T06:40:06;94671.88;;;19.14;100.00
40650;BME280;26342;42.826;23.992;2023-07-02T06:42:32;94664.03;;;19.21;100.00
40650;BME280;26342;42.826;23.992;2023-07-02T06:44:58;94654.91;;;19.26;100.00
40650;BME280;26342;42.826;23.992;2023-07-02T06:47:23;94662.97;;;19.35;100.00
40650;BME280;26342;42.826;23.992;2023-07-02T06:49:51;94666.28;;;19.40;100.00
40650;BME280;26342;42.826;23.992;2023-07-02T06:52:17;94663.41;;;19.45;100.00
40650;BME280;26342;42.826;23.992;2023-07-02T06:54:42;94642.53;;;19.46;100.00
40650;BME280;26342;42.826;23.992;2023-07-02T06:57:07;94650.91;;;19.53;100.00
40650;BME280;26342;42.826;23.992;2023-07-02T06:59:33;94663.09;;;19.68;100.00
40650;BME280;26342;42.826;23.992;2023-07-02T07:01:58;94674.03;;;19.71;100.00
40650;BME280;26342;42.826;23.992;2023-07-02T07:04:24;94685.91;;;19.79;100.00
40650;BME280;26342;42.826;23.992;2023-07-02T07:06:49;94667.41;;;19.81;100.00
40650;BME280;26342;42.826;23.992;2023-07-02T07:09:15;94671.44;;;19.96;100.00
40650;BME280;26342;42.826;23.992;2023-07-02T07:11:40;94670.91;;;20.02;100.00
40650;BME280;26342;42.826;23.992;2023-07-02T07:14:05;94670.69;;;20.07;100.00
40650;BME280;26342;42.826;23.992;2023-07-02T07:16:31;94663.72;;;20.19;100.00
40650;BME280;26342;42.826;23.992;2023-07-02T07:18:56;94659.59;;;20.33;100.00
40650;BME280;26342;42.826;23.992;2023-07-02T07:21:22;94665.28;;;20.53;100.00
40650;BME280;26342;42.826;23.992;2023-07-02T07:23:48;94663.88;;;20.80;100.00
40650;BME280;26342;42.826;23.992;2023-07-02T07:26:13;94666.66;;;21.08;100.00
40650;BME280;26342;42.826;23.992;2023-07-02T07:28:39;94652.31;;;21.32;100.00
40650;BME280;26342;42.826;23.992;2023-07-02T07:31:04;94661.09;;;21.65;100.00
40650;BME280;26342;42.826;23.992;2023-07-02T07:33:29;94649.66;;;21.88;100.00
40650;BME280;26342;42.826;23.992;2023-07-02T07:35:55;94652.16;;;22.21;100.00
40650;BME280;26342;42.826;23.992;2023-07-02T07:38:21;94653.97;;;22.45;100.00
40650;BME280;26342;42.826;23.992;2023-07-02T07:40:46;94656.16;;;22.55;100.00
40650;BME280;26342;42.826;23.992;2023-07-02T07:43:12;94661.41;;;22.64;100.00
40650;BME280;26342;42.826;23.992;2023-07-02T07:45:37;94656.94;;;22.71;100.00
40650;BME280;26342;42.826;23.992;2023-07-02T07:48:05;94667.66;;;22.80;100.00
40650;BME280;26342;42.826;23.992;2023-07-02T07:50:31;94667.59;;;22.92;100.00
40650;BME280;26342;42.826;23.992;2023-07-02T07:52:58;94657.22;;;22.98;100.00
40650;BME280;26342;42.826;23.992;2023-07-02T07:55:23;94676.25;;;23.13;100.00
40650;BME280;26342;42.826;23.992;2023-07-02T07:57:49;94660.44;;;23.19;100.00
40650;BME280;26342;42.826;23.992;2023-07-02T08:00:15;94678.31;;;23.36;100.00
40650;BME280;26342;42.826;23.992;2023-07-02T08:02:41;94684.03;;;23.47;100.00
40650;BME280;26342;42.826;23.992;2023-07-02T08:05:07;94679.38;;;23.47;100.00
40650;BME280;26342;42.826;23.992;2023-07-02T08:07:32;94681.63;;;23.45;100.00
40650;BME280;26342;42.826;23.992;2023-07-02T08:09:58;94680.06;;;23.44;100.00
40650;BME280;26342;42.826;23.992;2023-07-02T08:12:24;94684.25;;;23.57;100.00
40650;BME280;26342;42.826;23.992;2023-07-02T08:14:52;94686.28;;;23.60;100.00
40650;BME280;26342;42.826;23.992;2023-07-02T08:17:17;94692.97;;;23.63;100.00
40650;BME280;26342;42.826;23.992;2023-07-02T08:19:43;94687.53;;;23.63;100.00
40650;BME280;26342;42.826;23.992;2023-07-02T08:22:08;94689.88;;;23.64;100.00
40650;BME280;26342;42.826;23.992;2023-07-02T08:24:33;94678.13;;;23.60;100.00
40650;BME280;26342;42.826;23.992;2023-07-02T08:26:59;94683.09;;;23.58;100.00
40650;BME280;26342;42.826;23.992;2023-07-02T08:29:30;94692.84;;;23.59;100.00
40650;BME280;26342;42.826;23.992;2023-07-02T08:31:56;94691.22;;;23.55;100.00
40650;BME280;26342;42.826;23.992;2023-07-02T08:34:21;94692.06;;;23.59;100.00
40650;BME280;26342;42.826;23.992;2023-07-02T08:36:47;94695.34;;;23.64;100.00
40650;BME280;26342;42.826;23.992;2023-07-02T08:39:12;94692.66;;;23.68;100.00
40650;BME280;26342;42.826;23.992;2023-07-02T08:41:46;94676.41;;;23.72;100.00
40650;BME280;26342;42.826;23.992;2023-07-02T08:44:13;94692.63;;;23.84;100.00
40650;BME280;26342;42.826;23.992;2023-07-02T08:46:42;94691.84;;;23.83;100.00
40650;BME280;26342;42.826;23.992;2023-07-02T08:49:09;94696.72;;;23.93;100.00
40650;BME280;26342;42.826;23.992;2023-07-02T08:51:35;94701.75;;;24.11;100.00
40650;BME280;26342;42.826;23.992;2023-07-02T08:54:01;94698.44;;;24.21;100.00
40650;BME280;26342;42.826;23.992;2023-07-02T08:56:28;94697.56;;;24.17;100.00
40650;BME280;26342;42.826;23.992;2023-07-02T08:58:53;94698.81;;;24.19;100.00
40650;BME280;26342;42.826;23.992;2023-07-02T09:01:18;94694.00;;;24.32;100.00
40650;BME280;26342;42.826;23.992;2023-07-02T09:03:44;94697.00;;;24.46;100.00
40650;BME280;26342;42.826;23.992;2023-07-02T09:06:10;94698.66;;;24.51;99.93
40650;BME280;26342;42.826;23.992;2023-07-02T09:08:36;94689.97;;;24.45;98.65
40650;BME280;26342;42.826;23.992;2023-07-02T09:11:20;94695.97;;;24.55;100.00
40650;BME280;26342;42.826;23.992;2023-07-02T09:13:50;94694.00;;;24.74;100.00
40650;BME280;26342;42.826;23.992;2023-07-02T09:16:25;94689.84;;;25.03;100.00
40650;BME280;26342;42.826;23.992;2023-07-02T09:19:01;94688.75;;;25.08;100.00
40650;BME280;26342;42.826;23.992;2023-07-02T09:21:48;94686.50;;;25.14;100.00
40650;BME280;26342;42.826;23.992;2023-07-02T09:24:23;94688.25;;;25.25;93.05
40650;BME280;26342;42.826;23.992;2023-07-02T09:26:54;94679.06;;;25.37;94.13
40650;BME280;26342;42.826;23.992;2023-07-02T09:29:24;94682.88;;;25.59;91.60
40650;BME280;26342;42.826;23.992;2023-07-02T09:31:50;94681.22;;;25.77;92.09
40650;BME280;26342;42.826;23.992;2023-07-02T09:34:16;94669.53;;;25.80;89.89
40650;BME280;26342;42.826;23.992;2023-07-02T09:36:43;94679.69;;;26.13;95.56
40650;BME280;26342;42.826;23.992;2023-07-02T09:39:13;94667.94;;;26.39;96.14
40650;BME280;26342;42.826;23.992;2023-07-02T09:41:43;94675.91;;;26.55;97.26
40650;BME280;26342;42.826;23.992;2023-07-02T09:44:11;94692.81;;;26.64;85.76
40650;BME280;26342;42.826;23.992;2023-07-02T09:46:56;94673.75;;;26.75;92.36
40650;BME280;26342;42.826;23.992;2023-07-02T09:49:24;94681.31;;;26.89;83.18
40650;BME280;26342;42.826;23.992;2023-07-02T09:51:50;94685.56;;;26.83;88.77
40650;BME280;26342;42.826;23.992;2023-07-02T09:54:16;94681.25;;;26.82;79.84
40650;BME280;26342;42.826;23.992;2023-07-02T09:56:46;94684.38;;;26.80;79.90
40650;BME280;26342;42.826;23.992;2023-07-02T09:59:11;94688.19;;;26.72;84.01
40650;BME280;26342;42.826;23.992;2023-07-02T10:01:37;94684.84;;;26.52;74.44
40650;BME280;26342;42.826;23.992;2023-07-02T10:04:13;94693.53;;;26.58;81.32
40650;BME280;26342;42.826;23.992;2023-07-02T10:09:16;94683.38;;;26.58;80.27
40650;BME280;26342;42.826;23.992;2023-07-02T10:11:42;94687.19;;;26.50;79.80
40650;BME280;26342;42.826;23.992;2023-07-02T10:14:07;94688.16;;;26.35;80.77
40650;BME280;26342;42.826;23.992;2023-07-02T10:16:33;94685.16;;;26.43;78.74
40650;BME280;26342;42.826;23.992;2023-07-02T10:19:09;94689.44;;;26.41;80.14
40650;BME280;26342;42.826;23.992;2023-07-02T10:21:35;94687.69;;;26.29;74.29
40650;BME280;26342;42.826;23.992;2023-07-02T10:24:16;94680.19;;;26.23;83.19
40650;BME280;26342;42.826;23.992;2023-07-02T10:26:54;94676.72;;;26.26;79.94
40650;BME280;26342;42.826;23.992;2023-07-02T10:29:25;94673.25;;;26.29;75.56
40650;BME280;26342;42.826;23.992;2023-07-02T10:31:53;94664.19;;;26.55;76.15
40650;BME280;26342;42.826;23.992;2023-07-02T10:34:32;94672.97;;;26.75;71.42
40650;BME280;26342;42.826;23.992;2023-07-02T10:37:02;94665.66;;;26.89;69.34
40650;BME280;26342;42.826;23.992;2023-07-02T10:39:29;94650.03;;;26.93;67.71
40650;BME280;26342;42.826;23.992;2023-07-02T10:42:05;94651.66;;;26.98;70.21
40650;BME280;26342;42.826;23.992;2023-07-02T10:44:31;94658.13;;;27.20;70.47
40650;BME280;26342;42.826;23.992;2023-07-02T10:46:57;94662.38;;;27.14;72.97
40650;BME280;26342;42.826;23.992;2023-07-02T10:49:30;94657.66;;;27.11;67.12
40650;BME280;26342;42.826;23.992;2023-07-02T10:52:02;94660.53;;;27.32;75.62
40650;BME280;26342;42.826;23.992;2023-07-02T10:54:43;94656.38;;;27.52;68.43
40650;BME280;26342;42.826;23.992;2023-07-02T10:57:09;94652.91;;;27.63;70.87
40650;BME280;26342;42.826;23.992;2023-07-02T10:59:35;94641.28;;;27.80;66.21
40650;BME280;26342;42.826;23.992;2023-07-02T11:02:01;94651.56;;;28.01;68.18
40650;BME280;26342;42.826;23.992;2023-07-02T11:04:32;94645.34;;;28.18;75.69
40650;BME280;26342;42.826;23.992;2023-07-02T11:06:59;94643.50;;;28.40;66.36
40650;BME280;26342;42.826;23.992;2023-07-02T11:09:25;94645.50;;;28.54;70.13
40650;BME280;26342;42.826;23.992;2023-07-02T11:12:00;94640.38;;;28.45;64.28
40650;BME280;26342;42.826;23.992;2023-07-02T11:14:27;94641.91;;;28.32;59.39
40650;BME280;26342;42.826;23.992;2023-07-02T11:16:57;94644.59;;;28.21;66.93
40650;BME280;26342;42.826;23.992;2023-07-02T11:19:22;94652.03;;;28.14;62.03
40650;BME280;26342;42.826;23.992;2023-07-02T11:21:56;94654.69;;;28.03;63.92
40650;BME280;26342;42.826;23.992;2023-07-02T11:24:31;94652.72;;;27.96;66.74
40650;BME280;26342;42.826;23.992;2023-07-02T11:26:58;94650.72;;;27.86;64.45
40650;BME280;26342;42.826;23.992;2023-07-02T11:29:24;94643.69;;;27.92;69.28
40650;BME280;26342;42.826;23.992;2023-07-02T11:31:50;94644.00;;;27.73;70.80
40650;BME280;26342;42.826;23.992;2023-07-02T11:34:17;94650.34;;;27.91;72.97
40650;BME280;26342;42.826;23.992;2023-07-02T11:36:42;94644.47;;;27.96;69.61
40650;BME280;26342;42.826;23.992;2023-07-02T11:39:08;94651.56;;;28.01;71.96
40650;BME280;26342;42.826;23.992;2023-07-02T11:41:41;94632.38;;;28.01;71.72
40650;BME280;26342;42.826;23.992;2023-07-02T11:44:07;94637.91;;;28.19;71.84
40650;BME280;26342;42.826;23.992;2023-07-02T11:46:33;94619.47;;;28.12;69.87
40650;BME280;26342;42.826;23.992;2023-07-02T11:49:03;94627.66;;;28.01;68.99
40650;BME280;26342;42.826;23.992;2023-07-02T11:51:30;94622.97;;;27.98;70.20
40650;BME280;26342;42.826;23.992;2023-07-02T11:53:56;94637.53;;;28.17;70.72
40650;BME280;26342;42.826;23.992;2023-07-02T11:56:22;94633.69;;;28.35;73.59
40650;BME280;26342;42.826;23.992;2023-07-02T11:58:47;94639.06;;;28.07;66.89
40650;BME280;26342;42.826;23.992;2023-07-02T12:01:12;94628.50;;;28.20;69.82
40650;BME280;26342;42.826;23.992;2023-07-02T12:03:38;94632.91;;;28.31;70.36
40650;BME280;26342;42.826;23.992;2023-07-02T12:06:03;94621.16;;;28.38;69.99
40650;BME280;26342;42.826;23.992;2023-07-02T12:08:30;94615.28;;;28.40;65.21
40650;BME280;26342;42.826;23.992;2023-07-02T12:10:55;94623.50;;;28.36;66.23
40650;BME280;26342;42.826;23.992;2023-07-02T12:13:21;94630.88;;;28.21;67.83
40650;BME280;26342;42.826;23.992;2023-07-02T12:15:47;94628.41;;;27.91;67.77
40650;BME280;26342;42.826;23.992;2023-07-02T12:18:13;94625.22;;;27.75;71.48
40650;BME280;26342;42.826;23.992;2023-07-02T12:20:41;94633.81;;;27.70;68.87
40650;BME280;26342;42.826;23.992;2023-07-02T12:23:07;94614.06;;;27.43;70.62
40650;BME280;26342;42.826;23.992;2023-07-02T12:25:32;94626.09;;;27.27;72.47
40650;BME280;26342;42.826;23.992;2023-07-02T12:27:58;94625.22;;;27.13;72.13
40650;BME280;26342;42.826;23.992;2023-07-02T12:30:23;94624.22;;;26.87;73.68
40650;BME280;26342;42.826;23.992;2023-07-02T12:32:49;94621.72;;;26.71;76.93
40650;BME280;26342;42.826;23.992;2023-07-02T12:35:14;94617.38;;;26.67;79.40
40650;BME280;26342;42.826;23.992;2023-07-02T12:37:48;94609.16;;;26.67;78.62
40650;BME280;26342;42.826;23.992;2023-07-02T12:40:15;94619.78;;;26.72;80.00
40650;BME280;26342;42.826;23.992;2023-07-02T12:42:41;94612.81;;;26.78;75.90